createdAt,value
2019-03-22T00:00:11.507Z,65.90
2019-03-22T00:05:14.879Z,66.40
2019-03-22T00:10:18.267Z,66.80
2019-03-22T00:15:21.661Z,66.90
2019-03-22T00:20:25.115Z,67.50
2019-03-22T00:25:28.596Z,68.00
2019-03-22T00:30:31.978Z,68.10
2019-03-22T00:35:35.359Z,67.70
2019-03-22T00:40:38.753Z,68.90
2019-03-22T00:45:42.135Z,69.50
2019-03-22T00:50:45.511Z,69.70
2019-03-22T00:55:48.908Z,70.00
2019-03-22T01:00:52.561Z,70.30
2019-03-22T01:05:56.043Z,71.10
2019-03-22T01:10:59.431Z,71.20
2019-03-22T01:16:02.819Z,71.60
2019-03-22T01:21:06.199Z,71.90
2019-03-22T01:26:09.598Z,72.30
2019-03-22T01:31:12.995Z,72.50
2019-03-22T01:36:16.375Z,73.10
2019-03-22T01:41:19.762Z,73.70
2019-03-22T01:46:23.152Z,74.10
2019-03-22T01:51:26.530Z,74.10
2019-03-22T01:56:30.025Z,75.00
2019-03-22T02:01:33.474Z,75.30
2019-03-22T02:06:36.858Z,75.60
2019-03-22T02:11:40.251Z,76.10
2019-03-22T02:16:43.640Z,76.80
2019-03-22T02:21:47.022Z,76.60
2019-03-22T02:26:50.409Z,77.20
2019-03-22T02:31:53.800Z,77.90
2019-03-22T02:36:57.176Z,79.00
2019-03-22T02:42:00.561Z,79.10
2019-03-22T02:47:03.959Z,79.80
2019-03-22T02:52:07.324Z,79.20
2019-03-22T02:57:10.703Z,80.40
2019-03-22T03:02:14.100Z,80.50
2019-03-22T03:07:17.501Z,80.20
2019-03-22T03:12:20.896Z,80.50
2019-03-22T03:17:24.287Z,81.00
2019-03-22T03:22:27.668Z,80.80
2019-03-22T03:27:31.065Z,82.00
2019-03-22T03:32:34.471Z,82.20
2019-03-22T03:37:38.209Z,82.80
2019-03-22T03:42:41.599Z,83.30
2019-03-22T03:47:44.995Z,83.90
2019-03-22T03:52:48.388Z,83.90
2019-03-22T03:57:51.764Z,84.70
2019-03-22T04:02:55.144Z,84.90
2019-03-22T04:07:58.556Z,84.80
2019-03-22T04:13:01.929Z,86.00
2019-03-22T04:18:05.320Z,85.90
2019-03-22T04:23:08.707Z,86.80
2019-03-22T04:28:12.083Z,87.90
2019-03-22T04:33:15.502Z,88.10
2019-03-22T04:38:18.896Z,88.60
2019-03-22T04:43:22.345Z,89.30
2019-03-22T04:48:28.849Z,89.10
2019-03-22T04:53:38.172Z,89.90
2019-03-22T04:58:43.777Z,90.20
2019-03-22T05:03:47.299Z,90.70
2019-03-22T05:08:51.835Z,90.80
2019-03-22T05:13:58.056Z,91.10
2019-03-22T05:19:03.011Z,91.40
2019-03-22T05:24:07.351Z,91.90
2019-03-22T05:29:12.417Z,91.90
2019-03-22T05:34:15.811Z,92.20
2019-03-22T05:39:19.198Z,92.30
2019-03-22T05:44:22.604Z,92.90
2019-03-22T05:49:25.995Z,93.20
2019-03-22T05:54:29.377Z,93.30
2019-03-22T05:59:41.967Z,93.60
2019-03-22T06:04:37.878Z,93.70
2019-03-22T06:09:41.275Z,93.60
2019-03-22T06:14:44.665Z,93.50
2019-03-22T06:19:48.052Z,93.40
2019-03-22T06:24:51.438Z,93.60
2019-03-22T06:29:54.845Z,93.40
2019-03-22T06:34:58.319Z,93.80
2019-03-22T06:40:01.749Z,93.50
2019-03-22T06:45:06.508Z,93.10
2019-03-22T06:50:10.029Z,93.20
2019-03-22T06:55:13.424Z,92.60
2019-03-22T07:00:16.816Z,93.00
2019-03-22T07:05:20.196Z,93.00
2019-03-22T07:10:23.574Z,92.70
2019-03-22T07:15:26.947Z,92.40
2019-03-22T07:20:30.328Z,92.60
2019-03-22T07:25:33.714Z,92.40
2019-03-22T07:30:37.096Z,92.50
2019-03-22T07:35:40.586Z,91.70
2019-03-22T07:40:43.951Z,91.30
2019-03-22T07:45:47.340Z,91.50
2019-03-22T07:50:50.781Z,90.90
2019-03-22T07:55:54.148Z,90.20
2019-03-22T08:00:57.618Z,88.90
2019-03-22T08:06:00.999Z,86.20
2019-03-22T08:11:04.472Z,85.30
2019-03-22T08:16:07.918Z,84.20
2019-03-22T08:21:11.359Z,83.10
2019-03-22T08:26:14.790Z,81.50
2019-03-22T08:31:18.187Z,79.70
2019-03-22T08:36:21.563Z,78.90
2019-03-22T08:41:24.965Z,76.30
2019-03-22T08:46:28.592Z,75.20
2019-03-22T08:51:32.026Z,74.30
2019-03-22T08:56:36.239Z,74.00
2019-03-22T09:01:39.795Z,72.90
2019-03-22T09:06:43.372Z,71.40
2019-03-22T09:11:46.886Z,69.80
2019-03-22T09:16:50.267Z,69.30
2019-03-22T09:21:53.671Z,68.70
2019-03-22T09:26:57.088Z,68.90
2019-03-22T09:32:00.516Z,68.90
2019-03-22T09:37:03.960Z,66.80
2019-03-22T09:42:07.370Z,65.40
2019-03-22T09:47:10.778Z,64.00
2019-03-22T09:52:14.198Z,62.10
2019-03-22T09:57:17.611Z,63.30
2019-03-22T10:02:21.035Z,61.70
2019-03-22T10:07:24.448Z,61.90
2019-03-22T10:12:27.834Z,63.60
2019-03-22T10:17:31.219Z,61.30
2019-03-22T10:22:34.592Z,61.50
2019-03-22T10:27:38.069Z,60.20
2019-03-22T10:32:41.490Z,59.20
2019-03-22T10:37:44.903Z,58.40
2019-03-22T10:47:54.698Z,59.40
2019-03-22T10:52:58.110Z,59.80
2019-03-22T10:58:01.506Z,59.50
2019-03-22T11:03:04.900Z,58.80
2019-03-22T11:08:08.463Z,57.60
2019-03-22T11:13:11.856Z,57.20
2019-03-22T11:18:15.239Z,57.50
2019-03-22T11:23:18.643Z,55.70
2019-03-22T11:28:22.039Z,56.40
2019-03-22T11:33:25.435Z,57.20
2019-03-22T11:38:28.827Z,54.90
2019-03-22T11:43:32.216Z,57.40
2019-03-22T11:48:35.603Z,56.40
2019-03-22T11:53:38.984Z,58.00
2019-03-22T11:58:42.379Z,56.10
2019-03-22T12:03:45.764Z,55.10
2019-03-22T12:08:49.424Z,54.50
2019-03-22T12:13:52.807Z,55.30
2019-03-22T12:18:56.200Z,55.00
2019-03-22T12:23:59.585Z,54.20
2019-03-22T12:29:02.971Z,56.30
2019-03-22T12:34:06.526Z,55.90
2019-03-22T12:39:09.914Z,56.00
2019-03-22T12:44:13.323Z,55.50
2019-03-22T12:49:16.717Z,55.20
2019-03-22T12:54:20.117Z,53.80
2019-03-22T12:59:23.499Z,54.60
2019-03-22T13:04:26.891Z,54.50
2019-03-22T13:09:30.288Z,54.20
2019-03-22T13:14:33.675Z,54.50
2019-03-22T13:19:37.068Z,53.30
2019-03-22T13:24:40.471Z,52.30
2019-03-22T13:29:43.872Z,52.80
2019-03-22T13:34:47.247Z,54.10
2019-03-22T13:39:50.639Z,54.30
2019-03-22T13:44:54.037Z,54.80
2019-03-22T13:49:57.415Z,54.40
2019-03-22T13:55:00.804Z,53.90
2019-03-22T14:00:09.344Z,53.10
2019-03-22T14:05:12.972Z,54.90
2019-03-22T14:10:27.562Z,53.40
2019-03-22T14:15:30.944Z,55.00
2019-03-22T14:20:34.335Z,54.80
2019-03-22T14:25:37.724Z,53.90
2019-03-22T14:30:41.115Z,53.50
2019-03-22T14:35:44.571Z,51.00
2019-03-22T14:40:47.959Z,53.80
2019-03-22T14:45:51.357Z,52.80
2019-03-22T14:50:54.750Z,53.30
2019-03-22T14:55:58.140Z,53.80
2019-03-22T15:01:01.544Z,50.60
2019-03-22T15:06:04.924Z,53.40
2019-03-22T15:11:08.323Z,53.10
2019-03-22T15:16:13.351Z,50.20
2019-03-22T15:21:24.435Z,52.50
2019-03-22T15:26:35.744Z,53.50
2019-03-22T15:31:40.767Z,53.10
2019-03-22T15:36:54.211Z,53.30
2019-03-22T15:41:57.604Z,50.50
2019-03-22T15:47:00.983Z,51.00
2019-03-22T15:52:04.516Z,51.40
2019-03-22T15:57:07.979Z,50.00
2019-03-22T16:02:11.507Z,51.80
2019-03-22T16:07:14.998Z,52.80
2019-03-22T16:12:18.360Z,52.80
2019-03-22T16:17:21.748Z,52.40
2019-03-22T16:22:25.132Z,52.60
2019-03-22T16:27:28.530Z,53.30
2019-03-22T16:32:31.919Z,52.90
2019-03-22T16:37:35.307Z,53.50
2019-03-22T16:42:38.694Z,53.80
2019-03-22T16:47:42.092Z,53.70
2019-03-22T16:52:45.483Z,53.30
2019-03-22T16:57:48.887Z,53.60
2019-03-22T17:02:52.270Z,53.70
2019-03-22T17:07:55.646Z,53.40
2019-03-22T17:12:59.044Z,53.40
2019-03-22T17:18:02.463Z,53.40
2019-03-22T17:23:05.861Z,53.60
2019-03-22T17:28:09.243Z,54.30
2019-03-22T17:33:12.639Z,54.00
2019-03-22T17:38:16.100Z,54.20
2019-03-22T17:43:19.487Z,54.50
2019-03-22T17:48:22.878Z,54.80
2019-03-22T17:53:26.279Z,55.30
2019-03-22T17:58:29.663Z,55.60
2019-03-22T18:03:33.041Z,55.80
2019-03-22T18:08:37.327Z,56.10
2019-03-22T18:13:40.798Z,56.20
2019-03-22T18:18:44.193Z,56.50
2019-03-22T18:23:47.571Z,56.80
2019-03-22T18:28:50.955Z,57.60
2019-03-22T18:33:54.336Z,57.20
2019-03-22T18:38:57.727Z,57.60
2019-03-22T18:44:01.122Z,57.80
2019-03-22T18:49:04.495Z,58.00
2019-03-22T18:54:07.952Z,58.20
2019-03-22T18:59:11.354Z,58.10
2019-03-22T19:04:14.739Z,58.50
2019-03-22T19:09:18.129Z,58.50
2019-03-22T19:14:21.513Z,59.20
2019-03-22T19:19:24.915Z,58.70
2019-03-22T19:24:28.302Z,59.70
2019-03-22T19:29:31.693Z,59.40
2019-03-22T19:34:35.075Z,59.60
2019-03-22T19:39:38.478Z,59.70
2019-03-22T19:44:41.855Z,60.00
2019-03-22T19:49:45.273Z,60.30
2019-03-22T19:54:48.667Z,60.40
2019-03-22T19:59:52.068Z,60.40
2019-03-22T20:05:04.371Z,61.30
2019-03-22T20:10:00.641Z,61.40
2019-03-22T20:15:05.099Z,62.10
2019-03-22T20:20:09.423Z,63.40
2019-03-22T20:25:12.945Z,62.90
2019-03-22T20:30:17.580Z,64.30
2019-03-22T20:35:20.956Z,64.90
2019-03-22T20:40:24.360Z,64.80
2019-03-22T20:45:27.736Z,65.30
2019-03-22T20:50:35.639Z,65.10
2019-03-22T20:55:36.240Z,66.30
2019-03-22T21:00:39.610Z,64.80
2019-03-22T21:05:43.000Z,65.30
2019-03-22T21:10:46.487Z,65.20
2019-03-22T21:15:49.872Z,65.70
2019-03-22T21:20:53.243Z,66.00
2019-03-22T21:25:56.638Z,66.10
2019-03-22T21:31:00.021Z,65.70
2019-03-22T21:36:03.415Z,67.20
2019-03-22T21:41:06.801Z,67.90
2019-03-22T21:46:10.192Z,67.40
2019-03-22T21:51:13.589Z,67.70
2019-03-22T21:56:16.967Z,67.00
2019-03-22T22:01:20.347Z,68.20
2019-03-22T22:06:23.738Z,70.10
2019-03-22T22:11:27.111Z,70.30
2019-03-22T22:16:30.527Z,70.90
2019-03-22T22:21:33.960Z,71.10
2019-03-22T22:26:37.339Z,71.40
2019-03-22T22:31:40.799Z,71.30
2019-03-22T22:36:44.183Z,72.20
2019-03-22T22:41:47.574Z,72.30
2019-03-22T22:46:50.969Z,72.00
2019-03-22T22:51:54.355Z,72.70
2019-03-22T22:56:57.764Z,72.80
2019-03-22T23:02:01.143Z,73.50
2019-03-22T23:07:04.662Z,74.10
2019-03-22T23:12:08.041Z,73.50
2019-03-22T23:17:11.424Z,73.80
2019-03-22T23:22:14.806Z,75.10
2019-03-22T23:27:18.188Z,75.50
2019-03-22T23:32:21.567Z,75.80
2019-03-22T23:37:24.964Z,75.60
2019-03-22T23:42:28.347Z,76.60
2019-03-22T23:47:31.764Z,77.00
2019-03-22T23:52:35.127Z,77.50
2019-03-22T23:57:38.507Z,77.40
